N129NB KSLC-
Flight info
| Callsign | N129NB |
|---|---|
| Flight time | N/A |
| Altitude | VFR/050 |
| Route | /S/ |
| Aircraft | H125/L-DOV/C |
Departure
| Time | 2026-05-05 05:51 |
|---|---|
| Airport | Salt Lake City International Airport (KSLC) |
Arrival
| Time | N/A |
|---|---|
| Airport | - |
| Time | Latitude | Longitude | Altitude | Speed | Heading |
|---|---|---|---|---|---|
| 2026-05-05 05:44 | 40.78306 | -111.95882 | 4228 ft | 0 kts | 186° |
| 2026-05-05 05:46 | 40.78305 | -111.95884 | 4234 ft | 0 kts | 192° |
| 2026-05-05 05:47 | 40.78306 | -111.95883 | 4234 ft | 1 kts | 221° |
| 2026-05-05 05:47 | 40.78309 | -111.95890 | 4228 ft | 0 kts | 259° |
| 2026-05-05 05:47 | 40.78310 | -111.95892 | 4228 ft | 0 kts | 260° |
| 2026-05-05 05:48 | 40.78309 | -111.95892 | 4228 ft | 0 kts | 265° |
| 2026-05-05 05:48 | 40.78309 | -111.95893 | 4228 ft | 0 kts | 274° |
| 2026-05-05 05:48 | 40.78309 | -111.95894 | 4228 ft | 0 kts | 264° |
| 2026-05-05 05:48 | 40.78310 | -111.95895 | 4228 ft | 0 kts | 277° |
| 2026-05-05 05:49 | 40.78312 | -111.95893 | 4228 ft | 0 kts | 252° |
| 2026-05-05 05:49 | 40.78312 | -111.95900 | 4228 ft | 0 kts | 225° |
| 2026-05-05 05:49 | 40.78309 | -111.95902 | 4230 ft | 2 kts | 195° |
| 2026-05-05 05:50 | 40.78240 | -111.95898 | 4272 ft | 32 kts | 179° |
| 2026-05-05 05:50 | 40.77946 | -111.95816 | 4377 ft | 59 kts | 188° |
| 2026-05-05 05:50 | 40.77518 | -111.95666 | 4480 ft | 75 kts | 148° |
| 2026-05-05 05:50 | 40.77478 | -111.94900 | 4626 ft | 96 kts | 92° |
| 2026-05-05 05:51 | 40.77591 | -111.94064 | 4922 ft | 84 kts | 96° |
| 2026-05-05 05:51 | 40.77655 | -111.93243 | 4995 ft | 98 kts | 103° |
| 2026-05-05 05:51 | 40.77503 | -111.92385 | 5063 ft | 97 kts | 128° |
| 2026-05-05 05:51 | 40.77067 | -111.91822 | 5210 ft | 82 kts | 161° |
| 2026-05-05 05:52 | 40.76522 | -111.91554 | 5083 ft | 93 kts | 161° |
| 2026-05-05 05:52 | 40.75897 | -111.91242 | 4875 ft | 98 kts | 165° |
| 2026-05-05 05:52 | 40.75255 | -111.90936 | 4890 ft | 94 kts | 165° |
| 2026-05-05 05:52 | 40.74654 | -111.90698 | 4932 ft | 86 kts | 171° |
| 2026-05-05 05:53 | 40.74071 | -111.90619 | 4933 ft | 84 kts | 181° |
| 2026-05-05 05:53 | 40.73454 | -111.90620 | 4831 ft | 92 kts | 181° |
| 2026-05-05 05:53 | 40.72838 | -111.90537 | 4774 ft | 84 kts | 171° |
| 2026-05-05 05:53 | 40.72274 | -111.90456 | 4738 ft | 79 kts | 179° |
| 2026-05-05 05:54 | 40.71747 | -111.90456 | 4723 ft | 74 kts | 181° |
| 2026-05-05 05:54 | 40.71240 | -111.90439 | 4708 ft | 71 kts | 179° |
| 2026-05-05 05:54 | 40.70738 | -111.90412 | 4662 ft | 72 kts | 179° |
| 2026-05-05 05:54 | 40.70251 | -111.90373 | 4632 ft | 69 kts | 179° |
| 2026-05-05 05:55 | 40.69768 | -111.90318 | 4599 ft | 67 kts | 177° |
| 2026-05-05 05:55 | 40.69307 | -111.90270 | 4581 ft | 68 kts | 173° |
| 2026-05-05 05:55 | 40.68904 | -111.90032 | 4643 ft | 58 kts | 150° |
| 2026-05-05 05:55 | 40.68729 | -111.89600 | 4611 ft | 57 kts | 134° |
| 2026-05-05 05:56 | 40.68503 | -111.89170 | 4491 ft | 55 kts | 146° |
| 2026-05-05 05:56 | 40.68182 | -111.88843 | 4448 ft | 62 kts | 159° |
| 2026-05-05 05:56 | 40.67831 | -111.88653 | 4501 ft | 54 kts | 172° |
| 2026-05-05 05:56 | 40.67448 | -111.88589 | 4522 ft | 55 kts | 182° |
| 2026-05-05 05:57 | 40.67054 | -111.88601 | 4528 ft | 57 kts | 187° |
| 2026-05-05 05:57 | 40.66664 | -111.88635 | 4521 ft | 48 kts | 186° |
| 2026-05-05 05:57 | 40.66414 | -111.88609 | 4490 ft | 39 kts | 188° |
| 2026-05-05 05:57 | 40.66151 | -111.88715 | 4413 ft | 32 kts | 208° |
| 2026-05-05 05:58 | 40.66048 | -111.88863 | 4357 ft | 15 kts | 237° |
| 2026-05-05 05:58 | 40.66029 | -111.88955 | 4321 ft | 5 kts | 207° |
| 2026-05-05 05:58 | 40.66026 | -111.88963 | 4314 ft | 0 kts | 181° |